Time;durP1;ratioP1;P1;durP2;ratioP2;P2;SDS_P1;SDS_P2;PMS_P1;PMS_P2;Temp;Humidity;BMP_temperature;BMP_pressure;BME280_temperature;BME280_humidity;BME280_pressure;Samples;Min_cycle;Max_cycle;Signal;HPM_P1;HPM_P2
2022/04/29 00:00:42;;;;;;;0.70;0.68;;;20.60;37.40;;;24.31;24.66;102752.00;6216073;23;20023;-14
2022/04/29 00:03:10;;;;;;;1.55;0.80;;;20.60;37.40;;;24.42;24.68;102762.19;6215779;23;20005;-14
2022/04/29 00:05:38;;;;;;;0.50;0.50;;;20.60;37.40;;;24.41;24.57;102758.66;6215762;23;20418;-14
2022/04/29 00:08:05;;;;;;;0.70;0.70;;;20.60;37.40;;;24.42;24.67;102762.19;6216008;23;20017;-16
2022/04/29 00:10:32;;;;;;;0.50;0.50;;;20.60;37.40;;;24.44;24.46;102768.38;6215640;23;20008;-15
2022/04/29 00:13:01;;;;;;;0.60;0.60;;;20.60;37.40;;;24.42;24.66;102762.19;6216082;23;20139;-14
2022/04/29 00:15:28;;;;;;;0.57;0.57;;;20.60;37.40;;;24.45;24.47;102769.22;6215498;23;20338;-14
2022/04/29 00:17:55;;;;;;;0.70;0.70;;;20.60;37.40;;;24.35;24.63;102755.41;6215885;23;20020;-14
2022/04/29 00:20:21;;;;;;;0.80;0.60;;;20.60;37.40;;;24.44;24.49;102768.38;6214655;23;20012;-14
2022/04/29 00:22:46;;;;;;;0.80;0.80;;;20.60;37.40;;;24.41;24.46;102760.47;6215596;23;20326;-15
2022/04/29 00:25:13;;;;;;;0.57;0.57;;;20.60;37.50;;;24.40;24.34;102762.25;6215958;23;20016;-14
2022/04/29 00:27:40;;;;;;;0.68;0.68;;;20.60;37.50;;;24.33;24.56;102755.47;6215595;23;20016;-15
2022/04/29 00:30:12;;;;;;;1.60;0.60;;;20.60;37.50;;;24.31;24.52;102757.38;6215463;23;20119;-15
2022/04/29 00:32:39;;;;;;;0.50;0.50;;;20.60;37.40;;;24.38;24.74;102755.28;6215975;23;20016;-14
2022/04/29 00:35:08;;;;;;;0.70;0.70;;;20.60;37.40;;;24.41;24.64;102761.34;6216135;23;20013;-15
2022/04/29 00:37:49;;;;;;;0.60;0.60;;;20.60;37.40;;;24.40;24.42;102764.06;6215325;23;20004;-15
2022/04/29 00:40:20;;;;;;;0.88;0.82;;;20.60;37.40;;;24.44;24.42;102762.13;6216244;23;20356;-15
2022/04/29 00:42:46;;;;;;;0.70;0.70;;;20.60;37.40;;;24.21;24.43;102727.50;6213809;23;20016;-14
2022/04/29 00:45:16;;;;;;;0.70;0.70;;;20.60;37.40;;;24.42;24.43;102765.75;6215461;23;20009;-15
2022/04/29 00:47:43;;;;;;;0.70;0.70;;;20.60;37.40;;;24.38;24.41;102757.94;6213615;23;20009;-14
2022/04/29 00:50:11;;;;;;;0.52;0.52;;;20.60;37.40;;;24.41;24.67;102755.13;6215298;23;20477;-15
2022/04/29 00:52:46;;;;;;;0.70;0.70;;;20.60;37.40;;;24.28;24.56;102728.09;6215330;23;20017;-14
2022/04/29 00:55:14;;;;;;;1.05;0.75;;;20.60;37.40;;;24.41;24.68;102747.09;6215392;23;20013;-15
2022/04/29 00:58:08;;;;;;;0.70;0.70;;;20.60;37.40;;;24.41;24.68;102757.81;6213659;23;20024;-17
2022/04/29 01:00:36;;;;;;;0.70;0.70;;;20.60;37.40;;;24.40;24.53;102746.22;6209864;23;20160;-15
2022/04/29 01:03:03;;;;;;;0.60;0.60;;;20.60;37.40;;;24.30;24.46;102720.00;6211104;23;20078;-15
2022/04/29 01:05:31;;;;;;;0.80;0.80;;;20.60;37.50;;;24.35;24.50;102726.84;6213918;23;20012;-15
2022/04/29 01:07:57;;;;;;;0.77;0.70;;;20.60;37.40;;;24.37;24.66;102735.69;6213829;23;20423;-15
2022/04/29 01:10:23;;;;;;;0.60;0.55;;;20.60;37.40;;;24.41;24.51;102739.09;6215864;23;20019;-15
2022/04/29 01:12:58;;;;;;;0.50;0.50;;;20.60;37.40;;;24.38;24.63;102737.41;6213747;23;20008;-15
2022/04/29 01:15:24;;;;;;;0.55;0.55;;;20.60;37.30;;;24.33;24.36;102723.41;6213757;23;20435;-15
2022/04/29 01:17:56;;;;;;;1.30;0.75;;;20.60;37.30;;;24.30;24.70;102720.84;6214024;23;20045;-15
2022/04/29 01:20:30;;;;;;;0.60;0.60;;;20.60;37.40;;;24.29;24.52;102713.81;6211852;23;20325;-15
2022/04/29 01:22:56;;;;;;;0.85;0.70;;;20.60;37.40;;;24.39;24.41;102720.44;6213794;23;20013;-15
2022/04/29 01:25:23;;;;;;;0.98;0.70;;;20.60;37.40;;;24.41;24.40;102736.41;6213540;23;20020;-14
2022/04/29 01:27:51;;;;;;;0.65;0.65;;;20.60;37.30;;;24.33;24.66;102726.06;6213962;23;20035;-15
2022/04/29 01:30:18;;;;;;;0.73;0.73;;;20.60;37.40;;;24.41;24.54;102737.28;6214177;23;20013;-15
2022/04/29 01:32:45;;;;;;;0.65;0.50;;;20.60;37.40;;;24.32;24.41;102718.97;6213584;23;20390;-15
2022/04/29 01:35:13;;;;;;;0.75;0.65;;;20.60;37.30;;;24.29;24.40;102708.47;6215230;23;20350;-15
2022/04/29 01:37:39;;;;;;;1.20;0.77;;;20.60;37.40;;;24.32;24.39;102718.13;6215450;23;20060;-14
2022/04/29 01:40:06;;;;;;;0.70;0.70;;;20.60;37.30;;;24.40;24.59;102721.31;6238834;23;20438;-15
2022/04/29 01:42:33;;;;;;;0.50;0.50;;;20.60;37.90;;;24.40;24.29;102724.84;6213569;23;20009;-15
2022/04/29 01:44:59;;;;;;;0.57;0.57;;;20.60;37.30;;;24.38;24.61;102720.50;6213585;23;20846;-15
2022/04/29 01:47:26;;;;;;;0.68;0.68;;;20.60;37.30;;;24.31;24.63;102706.56;6213429;23;20013;-15
2022/04/29 01:50:10;;;;;;;0.60;0.60;;;20.60;37.30;;;24.30;24.56;102710.16;6215242;23;20070;-15
2022/04/29 01:52:37;;;;;;;0.60;0.60;;;20.60;37.30;;;24.38;24.46;102729.38;6213627;23;20091;-15
2022/04/29 01:55:03;;;;;;;0.50;0.50;;;20.60;37.30;;;24.29;24.46;102715.59;6215225;23;20063;-14
2022/04/29 01:57:31;;;;;;;0.82;0.82;;;20.60;37.30;;;24.39;24.39;102735.59;6213832;23;20008;-14
2022/04/29 01:59:57;;;;;;;0.60;0.60;;;20.60;37.30;;;24.40;24.58;102734.66;6213544;23;20067;-15
2022/04/29 02:02:41;;;;;;;0.52;0.52;;;20.60;37.30;;;24.30;24.35;102725.34;6215214;23;20016;-15
2022/04/29 02:05:08;;;;;;;1.00;0.70;;;20.60;37.30;;;24.29;24.43;102716.47;6214208;23;20088;-14
2022/04/29 02:07:34;;;;;;;0.50;0.50;;;20.60;37.30;;;24.38;24.45;102732.06;6213216;23;20023;-15
2022/04/29 02:10:00;;;;;;;0.60;0.60;;;20.60;37.80;;;24.37;24.60;102725.00;6213817;23;20027;-14
2022/04/29 02:12:28;;;;;;;0.77;0.60;;;20.60;37.30;;;24.30;24.34;102710.16;6213793;23;20008;-14
2022/04/29 02:14:55;;;;;;;0.50;0.50;;;20.50;37.30;;;24.33;24.51;102715.38;6215543;23;20338;-14
2022/04/29 02:17:41;;;;;;;0.70;0.70;;;20.60;37.40;;;24.38;24.37;102713.34;6212463;23;20063;-14
2022/04/29 02:20:09;;;;;;;0.68;0.68;;;20.60;37.30;;;24.29;24.66;102700.44;6239129;23;20017;-14
2022/04/29 02:22:35;;;;;;;0.60;0.60;;;20.60;37.30;;;24.31;24.48;102703.91;6213373;23;20012;-14
2022/04/29 02:25:01;;;;;;;0.70;0.68;;;20.50;37.30;;;24.31;24.60;102709.25;6214046;23;20008;-15
2022/04/29 02:27:27;;;;;;;0.60;0.60;;;20.50;37.30;;;24.25;24.47;102692.63;6214996;23;20066;-14
2022/04/29 02:29:53;;;;;;;0.50;0.50;;;20.60;37.40;;;24.31;24.50;102703.03;6213247;23;20015;-14
2022/04/29 02:32:21;;;;;;;0.95;0.60;;;20.50;37.30;;;24.31;24.63;102709.25;6214078;23;20027;-15
2022/04/29 02:34:46;;;;;;;0.60;0.60;;;20.60;37.30;;;24.36;24.61;102715.25;6214925;23;20013;-14
2022/04/29 02:37:13;;;;;;;0.47;0.47;;;20.50;37.30;;;24.38;24.61;102725.84;6213413;23;20019;-14
2022/04/29 02:39:40;;;;;;;0.60;0.60;;;20.50;37.30;;;24.29;24.50;102700.44;6213933;23;20017;-14
2022/04/29 02:42:07;;;;;;;0.70;0.70;;;20.50;37.20;;;24.37;24.67;102708.97;6213233;23;20023;-14
2022/04/29 02:44:33;;;;;;;0.50;0.50;;;20.60;37.20;;;24.39;24.61;102719.56;6213250;23;20066;-14
2022/04/29 02:47:09;;;;;;;0.70;0.70;;;20.60;37.20;;;24.37;24.60;102708.06;6213302;23;20021;-14
2022/04/29 02:49:42;;;;;;;0.50;0.50;;;20.60;37.20;;;24.39;24.42;102712.41;6213176;23;20089;-15
2022/04/29 02:52:10;;;;;;;0.73;0.70;;;20.60;37.10;;;24.31;24.54;102698.53;6215676;23;20438;-14
2022/04/29 02:54:37;;;;;;;0.50;0.50;;;20.60;37.10;;;24.29;24.40;102691.53;6213180;23;20627;-15
2022/04/29 02:57:06;;;;;;;0.60;0.60;;;20.60;37.10;;;24.42;24.57;102716.75;6213092;23;20016;-14
2022/04/29 02:59:42;;;;;;;0.60;0.60;;;20.60;37.00;;;24.43;24.45;102718.50;6213730;23;20339;-15
2022/04/29 03:02:08;;;;;;;0.65;0.65;;;20.70;37.10;;;24.42;24.56;102711.38;6213856;23;20025;-15
2022/04/29 03:04:35;;;;;;;0.65;0.57;;;20.60;37.00;;;24.36;24.50;102701.88;6213428;23;20013;-15
2022/04/29 03:07:01;;;;;;;0.55;0.55;;;20.60;37.10;;;24.34;24.55;102697.53;6213068;23;20014;-15
2022/04/29 03:09:40;;;;;;;0.63;0.63;;;20.60;37.10;;;24.44;24.27;102706.88;6212924;23;20059;-14
2022/04/29 03:12:12;;;;;;;0.50;0.50;;;20.70;37.10;;;24.37;24.33;102686.69;6214568;23;20504;-15
2022/04/29 03:14:38;;;;;;;0.50;0.50;;;20.70;37.00;;;24.46;24.47;102698.75;6213461;23;20327;-14
2022/04/29 03:17:05;;;;;;;1.05;0.50;;;20.70;36.90;;;24.40;24.50;102681.19;6213201;23;20098;-15
2022/04/29 03:19:31;;;;;;;0.60;0.60;;;20.80;36.90;;;24.43;24.45;102683.72;6213012;23;20020;-15
2022/04/29 03:21:57;;;;;;;0.60;0.60;;;20.70;36.90;;;24.41;24.23;102674.91;6215340;23;20012;-15
2022/04/29 03:24:23;;;;;;;1.02;0.60;;;20.80;36.80;;;24.48;24.17;102692.38;6212845;23;20044;-14
2022/04/29 03:26:49;;;;;;;0.60;0.60;;;20.80;36.80;;;24.40;24.18;102676.69;6212792;23;20500;-14
2022/04/29 03:29:16;;;;;;;0.60;0.60;;;20.80;36.80;;;24.39;24.37;102672.31;6213041;23;20016;-15
2022/04/29 03:31:41;;;;;;;0.55;0.55;;;20.80;37.30;;;24.45;24.26;102680.97;6213414;23;20461;-15
2022/04/29 03:34:30;;;;;;;0.50;0.50;;;20.80;36.80;;;24.34;24.34;102649.41;6186857;23;20016;-15
2022/04/29 03:36:56;;;;;;;0.63;0.50;;;20.80;36.90;;;24.43;24.35;102675.69;6215489;23;20032;-15
2022/04/29 03:39:23;;;;;;;0.77;0.77;;;20.70;36.90;;;24.41;24.12;102667.75;6214159;23;20013;-15
2022/04/29 03:41:49;;;;;;;0.73;0.73;;;20.70;37.00;;;24.49;24.44;102686.13;6214245;23;20012;-15
2022/04/29 03:44:15;;;;;;;0.60;0.60;;;20.70;37.00;;;24.49;24.24;102686.13;6214094;23;20023;-15
2022/04/29 03:46:42;;;;;;;0.50;0.50;;;20.70;37.00;;;24.30;24.35;102658.53;6214543;23;20012;-15
2022/04/29 03:49:37;;;;;;;0.60;0.52;;;20.70;37.00;;;24.50;24.13;102686.97;6215543;23;20449;-15
2022/04/29 03:52:19;;;;;;;0.60;0.60;;;20.70;37.00;;;24.48;24.34;102679.03;6216566;23;20012;-15
2022/04/29 03:54:47;;;;;;;0.90;0.70;;;20.70;37.00;;;24.39;24.19;102671.44;6213950;23;20016;-15
2022/04/29 03:57:13;;;;;;;0.60;0.60;;;20.60;37.00;;;24.47;24.41;102682.63;6214193;23;20446;-15
2022/04/29 03:59:39;;;;;;;0.50;0.50;;;20.60;37.00;;;24.43;24.48;102675.69;6214302;23;20009;-15
2022/04/29 04:02:05;;;;;;;0.60;0.60;;;20.60;37.00;;;24.44;24.29;102682.81;6214721;23;20019;-15
2022/04/29 04:04:31;;;;;;;0.60;0.60;;;20.60;37.00;;;24.41;24.31;102673.09;6214695;23;20071;-15
2022/04/29 04:07:02;;;;;;;0.47;0.47;;;20.60;37.00;;;24.43;24.21;102673.03;6189715;23;20020;-15
2022/04/29 04:09:39;;;;;;;0.85;0.70;;;20.60;37.10;;;24.40;24.29;102671.34;6214113;23;20039;-15
2022/04/29 04:12:07;;;;;;;0.70;0.70;;;20.60;37.10;;;24.36;24.25;102656.41;6214675;23;20019;-15
2022/04/29 04:15:00;;;;;;;0.70;0.70;;;20.60;37.10;;;24.44;24.22;102669.44;6186548;23;20024;-16
2022/04/29 04:17:26;;;;;;;1.20;0.60;;;20.60;37.10;;;24.39;24.41;102664.28;6211344;23;20048;-16
2022/04/29 04:19:52;;;;;;;0.73;0.73;;;20.60;37.10;;;24.36;24.41;102667.13;6213693;23;20044;-15
2022/04/29 04:22:18;;;;;;;0.50;0.50;;;20.60;37.10;;;24.44;24.30;102685.47;6214639;23;20015;-15
2022/04/29 04:24:44;;;;;;;0.70;0.60;;;20.60;37.10;;;24.44;24.24;102692.59;6214666;23;20016;-15
2022/04/29 04:27:09;;;;;;;0.70;0.68;;;20.60;37.20;;;24.33;24.54;102672.59;6214076;23;20008;-15
2022/04/29 04:29:35;;;;;;;0.60;0.60;;;20.60;37.20;;;24.43;24.48;102694.41;6213866;23;20016;-15
2022/04/29 04:32:01;;;;;;;0.82;0.60;;;20.60;37.20;;;24.34;24.34;102684.16;6214224;23;20017;-15
2022/04/29 04:37:11;;;;;;;0.70;0.60;;;20.60;37.20;;;24.31;24.27;102673.63;6214715;23;20017;-15
2022/04/29 04:39:37;;;;;;;0.50;0.50;;;20.60;37.20;;;24.41;24.38;102690.97;6213656;23;20021;-15
2022/04/29 04:42:10;;;;;;;0.60;0.60;;;20.60;37.20;;;24.34;24.41;102671.66;6214499;23;20039;-15
2022/04/29 04:44:45;;;;;;;0.60;0.55;;;20.60;37.20;;;24.33;24.50;102677.09;6214260;23;20027;-15
2022/04/29 04:47:11;;;;;;;0.60;0.60;;;20.60;37.10;;;24.38;24.29;102691.97;6213689;23;20091;-14
2022/04/29 04:49:56;;;;;;;0.60;0.60;;;20.60;37.10;;;24.47;24.41;102704.00;6213797;23;20111;-14
2022/04/29 04:52:25;;;;;;;0.60;0.60;;;20.60;37.10;;;24.39;24.23;102687.47;6213689;23;20017;-14
2022/04/29 04:54:51;;;;;;;0.60;0.60;;;20.60;37.10;;;24.45;24.18;102703.22;6213714;23;20008;-14
2022/04/29 04:57:18;;;;;;;0.73;0.50;;;20.60;37.10;;;24.39;24.37;102695.50;6213708;23;20016;-14
2022/04/29 04:59:44;;;;;;;0.80;0.50;;;20.60;37.10;;;24.43;24.43;102699.78;6214067;23;20012;-14
2022/04/29 05:02:09;;;;;;;0.50;0.50;;;20.60;37.00;;;24.45;24.49;102699.69;6213669;23;20020;-14
2022/04/29 05:04:58;;;;;;;0.60;0.60;;;20.60;37.00;;;24.47;24.25;102709.38;6214755;23;20028;-14
2022/04/29 05:07:41;;;;;;;0.60;0.60;;;20.60;37.00;;;24.47;24.18;102704.00;6214358;23;20008;-14
2022/04/29 05:10:10;;;;;;;0.70;0.60;;;20.60;37.00;;;24.35;24.26;102686.75;6213620;23;20018;-14
2022/04/29 05:12:42;;;;;;;0.50;0.50;;;20.60;37.00;;;24.40;24.31;102689.22;6213361;23;20315;-15
2022/04/29 05:15:20;;;;;;;0.85;0.60;;;20.60;37.00;;;24.47;24.26;102704.00;6215325;23;20013;-14
2022/04/29 05:17:46;;;;;;;0.40;0.40;;;20.60;37.00;;;24.39;24.32;102690.16;6213863;23;20017;-14
2022/04/29 05:20:26;;;;;;;0.52;0.52;;;20.60;37.00;;;24.42;24.18;102698.91;6239089;23;20012;-14
2022/04/29 05:22:52;;;;;;;0.50;0.50;;;20.70;37.00;;;24.45;24.22;102691.69;6213590;23;20016;-15
2022/04/29 05:25:18;;;;;;;0.50;0.50;;;20.70;37.00;;;24.53;24.22;102708.22;6215294;23;20023;-15
2022/04/29 05:28:03;;;;;;;0.80;0.63;;;20.70;36.90;;;24.49;24.09;102699.50;6215304;23;20067;-15
2022/04/29 05:31:03;;;;;;;0.50;0.50;;;20.70;36.90;;;24.59;24.31;102708.81;6180981;23;20095;-15
2022/04/29 05:33:48;;;;;;;0.40;0.40;;;20.80;36.80;;;24.65;24.10;102718.34;6215767;23;20028;-15
2022/04/29 05:36:36;;;;;;;0.80;0.68;;;20.90;36.60;;;24.69;24.07;102717.28;6214400;23;20083;-15
2022/04/29 05:44:35;;;;;;;0.50;0.50;;;21.10;36.40;;;24.78;24.19;102714.13;6215178;23;20009;-15
2022/04/29 05:47:02;;;;;;;0.52;0.52;;;21.10;36.90;;;24.70;24.03;102694.91;6213142;23;20017;-15
2022/04/29 05:49:28;;;;;;;0.45;0.45;;;21.10;36.80;;;24.75;23.95;102702.72;6213541;23;20036;-16
2022/04/29 05:51:54;;;;;;;0.40;0.40;;;21.10;36.40;;;24.88;23.80;102713.69;6213835;23;20016;-15
2022/04/29 05:54:22;;;;;;;0.60;0.60;;;21.10;36.30;;;24.88;23.78;102719.91;6213329;23;20451;-16
2022/04/29 05:56:48;;;;;;;0.50;0.50;;;21.10;36.30;;;24.84;23.89;102709.41;6213151;23;20037;-16
2022/04/29 05:59:14;;;;;;;0.57;0.57;;;21.20;36.30;;;24.86;23.92;102712.88;6213756;23;20051;-15
2022/04/29 06:01:59;;;;;;;0.73;0.70;;;21.20;36.30;;;24.97;23.80;102715.91;6213964;23;20371;-16
2022/04/29 06:04:35;;;;;;;0.50;0.50;;;21.20;36.20;;;24.95;23.85;102715.97;6214035;23;20078;-14
2022/04/29 06:07:01;;;;;;;0.60;0.60;;;21.20;36.20;;;24.99;23.88;102724.72;6213634;23;20012;-14
2022/04/29 06:09:27;;;;;;;0.50;0.50;;;21.20;36.20;;;24.93;23.76;102711.66;6213407;23;20020;-15
2022/04/29 06:11:55;;;;;;;1.05;0.80;;;21.20;36.30;;;25.00;23.82;102728.28;6213981;23;20012;-15
2022/04/29 06:14:27;;;;;;;0.50;0.50;;;21.20;36.30;;;25.03;23.67;102723.63;6215350;23;20097;-15
2022/04/29 06:17:13;;;;;;;0.60;0.60;;;21.20;36.20;;;25.12;23.89;102727.66;6214872;23;20104;-16
2022/04/29 06:20:09;;;;;;;0.50;0.50;;;21.30;36.10;;;25.11;23.79;102707.19;6214473;23;20036;-15
2022/04/29 06:23:06;;;;;;;0.63;0.57;;;21.40;35.90;;;25.27;23.66;102713.50;6213276;23;20056;-15
2022/04/29 06:25:33;;;;;;;0.55;0.55;;;21.50;35.80;;;25.30;23.62;102716.03;6212977;23;20017;-15
2022/04/29 06:27:59;;;;;;;0.50;0.50;;;21.50;35.70;;;25.30;23.58;102702.66;6214918;23;20009;-15
2022/04/29 06:30:25;;;;;;;0.55;0.52;;;21.60;35.70;;;25.35;23.52;102702.41;6213162;23;20013;-15
2022/04/29 06:33:05;;;;;;;0.90;0.50;;;21.70;35.60;;;25.49;23.44;102715.97;6213557;23;20012;-15
2022/04/29 06:35:41;;;;;;;0.60;0.60;;;21.70;35.50;;;25.54;23.37;102723.72;6213954;23;20461;-15
2022/04/29 06:38:07;;;;;;;0.88;0.57;;;21.80;35.60;;;25.54;23.28;102709.50;6212941;23;20457;-15
2022/04/29 06:40:52;;;;;;;0.40;0.40;;;21.80;35.50;;;25.64;23.31;102716.97;6215265;23;20078;-15
2022/04/29 06:43:19;;;;;;;0.50;0.50;;;21.90;35.40;;;25.63;23.24;102707.19;6213090;23;20023;-15
2022/04/29 06:46:04;;;;;;;0.55;0.55;;;21.90;35.30;;;25.76;23.32;102711.88;6214760;23;20043;-15
2022/04/29 06:48:52;;;;;;;1.02;0.63;;;21.90;35.30;;;25.73;23.04;102709.38;6214460;23;20343;-15
2022/04/29 06:51:38;;;;;;;0.73;0.70;;;21.90;35.30;;;25.84;23.00;102723.97;6215317;23;20017;-15
2022/04/29 06:54:12;;;;;;;0.57;0.50;;;21.90;35.30;;;25.80;23.04;102717.00;6213202;23;20016;-15
2022/04/29 06:56:38;;;;;;;0.60;0.60;;;21.90;35.30;;;25.85;23.07;102732.84;6212704;23;20039;-16
2022/04/29 06:59:05;;;;;;;0.50;0.50;;;21.90;35.30;;;25.86;23.09;102730.09;6213629;23;20419;-15
2022/04/29 07:01:34;;;;;;;0.70;0.50;;;21.90;35.30;;;25.82;22.95;102708.88;6213037;23;20019;-15
2022/04/29 07:04:01;;;;;;;0.40;0.40;;;21.90;35.30;;;25.87;22.93;102712.19;6212828;23;20020;-16
2022/04/29 07:06:27;;;;;;;0.40;0.40;;;22.00;35.20;;;25.94;23.01;102721.63;6212893;23;20509;-15
2022/04/29 07:08:53;;;;;;;0.63;0.60;;;22.00;35.20;;;25.97;23.03;102712.59;6212638;23;20016;-15
2022/04/29 07:11:38;;;;;;;0.50;0.50;;;22.10;35.20;;;26.03;22.82;102710.44;6214713;23;20395;-16
2022/04/29 07:14:15;;;;;;;0.57;0.57;;;22.10;35.10;;;26.12;22.88;102724.28;6212854;23;20021;-15
2022/04/29 07:16:59;;;;;;;0.90;0.75;;;22.10;35.10;;;26.06;22.74;102710.28;6213160;23;20099;-15
2022/04/29 07:19:45;;;;;;;0.60;0.60;;;22.10;35.00;;;26.19;22.73;102723.00;6213332;23;20387;-15
2022/04/29 07:22:11;;;;;;;0.50;0.50;;;22.20;35.00;;;26.20;22.69;102709.50;6238176;23;20016;-15
2022/04/29 07:24:44;;;;;;;0.50;0.50;;;22.20;34.90;;;26.25;22.69;102714.63;6212828;23;20468;-17
2022/04/29 07:27:09;;;;;;;0.50;0.50;;;22.20;34.90;;;26.19;22.64;102704.22;6214947;23;20008;-15
2022/04/29 07:29:36;;;;;;;0.52;0.52;;;22.30;34.90;;;26.26;22.52;102708.28;6212557;23;20009;-15
2022/04/29 07:32:09;;;;;;;0.70;0.70;;;22.20;34.80;;;26.32;22.68;102713.31;6212756;23;20015;-15
2022/04/29 07:43:24;;;;;;;1.00;0.70;;;22.30;35.40;;;26.30;22.48;102696.47;6213006;23;20040;-16
2022/04/29 07:45:52;;;;;;;0.60;0.60;;;22.30;34.80;;;26.37;22.58;102713.94;6212819;23;20025;-16
2022/04/29 07:48:39;;;;;;;0.50;0.50;;;22.30;34.70;;;26.35;22.45;102702.44;6167832;23;20350;-15
2022/04/29 07:51:06;;;;;;;0.88;0.88;;;22.30;34.70;;;26.38;22.41;102706.75;6212073;23;20024;-15
2022/04/29 07:53:32;;;;;;;0.50;0.50;;;22.30;34.70;;;26.23;22.50;102674.50;6212397;23;20066;-15
2022/04/29 07:55:58;;;;;;;0.70;0.50;;;22.30;34.80;;;26.46;22.43;102709.00;6212268;23;20023;-15
2022/04/29 07:58:23;;;;;;;0.88;0.60;;;22.30;34.70;;;26.39;22.47;102700.44;6186872;23;20009;-16
2022/04/29 08:00:50;;;;;;;0.85;0.60;;;22.40;34.90;;;26.45;22.56;102713.50;6212294;23;20140;-15
2022/04/29 08:03:16;;;;;;;0.80;0.57;;;22.40;34.90;;;26.53;22.44;102713.94;6212102;23;20013;-16
2022/04/29 08:06:00;;;;;;;0.70;0.70;;;22.50;35.20;;;26.54;22.51;102704.94;6212591;23;20016;-15
2022/04/29 08:08:25;;;;;;;2.08;0.55;;;22.60;35.10;;;26.54;22.56;102690.66;6211760;23;20017;-15
2022/04/29 08:10:51;;;;;;;1.50;0.50;;;22.60;35.10;;;26.62;22.62;102708.03;6187054;23;20312;-15
2022/04/29 08:13:17;;;;;;;2.50;0.70;;;22.70;35.20;;;26.59;22.63;102705.53;6212597;23;20016;-15
2022/04/29 08:16:08;;;;;;;3.22;0.70;;;22.60;35.10;;;26.52;22.61;102693.44;6211980;23;20096;-15
2022/04/29 08:18:53;;;;;;;2.30;0.70;;;22.50;35.30;;;26.50;22.82;102698.03;6213133;23;20469;-15
2022/04/29 08:21:34;;;;;;;1.42;0.93;;;22.40;35.60;;;26.42;23.00;102694.91;6214263;23;20021;-15
2022/04/29 08:24:02;;;;;;;2.67;0.70;;;22.30;35.90;;;26.39;22.88;102711.16;6214502;23;20017;-15
2022/04/29 08:26:28;;;;;;;3.40;0.52;;;22.30;36.00;;;26.30;23.16;102691.09;6188632;23;20088;-15
2022/04/29 08:28:55;;;;;;;2.55;0.90;;;22.30;36.10;;;26.31;23.28;102694.63;6213197;23;20066;-17
2022/04/29 08:31:21;;;;;;;1.95;0.80;;;22.30;36.30;;;26.30;23.45;102691.09;6213587;23;20019;-17
2022/04/29 08:33:54;;;;;;;0.90;0.60;;;22.30;36.40;;;26.23;23.36;102692.41;6213664;23;20015;-17
2022/04/29 08:36:20;;;;;;;1.02;0.70;;;22.30;36.50;;;26.24;23.49;102683.38;6213254;23;20103;-18
2022/04/29 08:38:47;;;;;;;1.75;0.70;;;22.30;36.50;;;26.23;23.52;102684.34;6213251;23;20040;-18
2022/04/29 08:41:18;;;;;;;2.35;0.60;;;22.30;36.50;;;26.27;23.40;102690.41;6213567;23;20343;-17
2022/04/29 08:43:44;;;;;;;1.05;0.70;;;22.30;36.40;;;26.25;23.51;102682.44;6213543;23;20099;-17
2022/04/29 08:46:13;;;;;;;2.60;0.77;;;22.30;36.40;;;26.32;23.63;102699.06;6213497;23;20008;-17
2022/04/29 08:48:59;;;;;;;2.42;0.85;;;22.40;36.60;;;26.25;23.54;102693.19;6211690;23;20107;-17
2022/04/29 08:51:25;;;;;;;2.72;0.80;;;22.40;36.70;;;26.28;23.71;102694.81;6210556;23;20359;-17
2022/04/29 08:53:51;;;;;;;2.58;0.80;;;22.30;36.60;;;26.26;23.55;102702.94;6215263;23;20111;-17
2022/04/29 08:59:19;;;;;;;1.75;0.90;;;22.30;36.80;;;26.28;23.69;102694.81;6123402;23;20016;-17
2022/04/29 09:01:45;;;;;;;3.08;0.80;;;22.30;36.80;;;26.29;23.68;102694.72;6195921;23;20054;-17
2022/04/29 09:04:11;;;;;;;3.13;0.70;;;22.30;36.70;;;26.30;23.71;102690.25;6215193;23;20013;-16
2022/04/29 09:06:51;;;;;;;0.90;0.70;;;22.30;36.80;;;26.22;23.89;102677.25;6215314;23;20019;-20
2022/04/29 09:09:21;;;;;;;1.58;1.05;;;22.30;36.90;;;26.27;23.68;102690.41;6213079;23;20013;-20
2022/04/29 09:11:47;;;;;;;1.40;0.80;;;22.30;36.70;;;26.27;23.71;102679.69;6212840;23;20008;-21
2022/04/29 09:14:22;;;;;;;1.15;0.80;;;22.30;36.70;;;26.31;23.79;102691.97;6213536;23;20096;-21
2022/04/29 09:16:49;;;;;;;2.28;0.80;;;22.30;36.90;;;26.25;23.81;102683.31;6213327;23;20035;-21
2022/04/29 09:19:31;;;;;;;1.90;0.80;;;22.30;36.80;;;26.28;23.51;102693.00;6213571;23;20059;-21
2022/04/29 09:22:08;;;;;;;1.88;0.70;;;22.30;36.70;;;26.23;23.76;102676.31;6212116;23;20012;-20
2022/04/29 09:25:03;;;;;;;1.83;1.02;;;22.30;36.80;;;26.28;23.68;102684.06;6213601;23;20016;-20
2022/04/29 09:28:03;;;;;;;1.75;1.08;;;22.20;36.60;;;26.24;23.69;102678.03;6210119;23;20015;-21
2022/04/29 09:30:59;;;;;;;2.20;0.90;;;22.20;36.50;;;26.25;23.33;102682.44;6191422;23;20051;-21
2022/04/29 09:33:58;;;;;;;3.92;1.00;;;22.20;36.50;;;26.24;23.68;102686.06;6213137;23;20913;-20
2022/04/29 09:36:37;;;;;;;4.68;1.05;;;22.20;36.60;;;26.17;23.64;102666.78;6213093;23;20013;-20
2022/04/29 09:42:00;;;;;;;3.92;0.77;;;22.20;36.60;;;26.17;23.61;102688.22;6215119;23;20119;-20
2022/04/29 09:44:30;;;;;;;1.88;0.80;;;22.20;36.60;;;26.17;23.64;102680.19;6211220;23;20058;-22
2022/04/29 09:46:57;;;;;;;1.58;0.88;;;22.20;36.60;;;26.20;23.55;102687.22;6212132;23;20104;-19
2022/04/29 09:49:27;;;;;;;1.67;1.08;;;22.20;36.50;;;26.14;23.60;102683.03;6211541;23;20020;-19
2022/04/29 09:51:53;;;;;;;2.47;0.90;;;22.30;36.40;;;26.20;23.67;102671.13;6210261;23;20036;-18
2022/04/29 09:54:35;;;;;;;4.65;1.10;;;22.20;36.30;;;26.15;23.42;102671.38;6209653;23;20013;-17
2022/04/29 09:57:09;;;;;;;1.63;0.80;;;22.30;36.40;;;26.22;23.52;102680.78;6214727;23;20048;-18
2022/04/29 09:59:47;;;;;;;3.35;1.25;;;22.20;36.20;;;26.22;23.58;102670.06;6215076;23;20013;-17
2022/04/29 10:02:23;;;;;;;2.80;1.00;;;22.30;36.40;;;26.23;23.53;102673.63;6213981;23;20016;-16
2022/04/29 10:04:53;;;;;;;9.70;1.27;;;22.20;36.30;;;26.19;23.45;102661.34;6213734;23;20015;-17
2022/04/29 10:07:21;;;;;;;3.38;0.70;;;22.30;36.40;;;26.24;23.56;102669.97;6214590;23;20013;-19
2022/04/29 10:09:55;;;;;;;3.92;1.00;;;22.20;36.30;;;26.19;23.44;102667.56;6189339;23;20063;-17
2022/04/29 10:12:24;;;;;;;2.45;1.02;;;22.20;36.30;;;26.17;23.46;102658.75;6214991;23;20083;-17
2022/04/29 10:15:00;;;;;;;5.35;0.88;;;22.20;36.30;;;26.24;23.51;102676.22;6213427;23;20019;-17
2022/04/29 10:23:22;;;;;;;1.80;1.00;;;22.10;36.30;;;26.21;23.46;102668.34;6213975;23;20012;-16
2022/04/29 10:25:48;;;;;;;3.40;1.00;;;22.10;36.10;;;26.20;23.27;102673.81;6215183;23;20020;-17
2022/04/29 10:28:20;;;;;;;3.03;0.80;;;22.10;36.20;;;26.16;23.39;102664.19;6212868;23;20017;-17
2022/04/29 10:30:46;;;;;;;1.40;0.80;;;22.00;36.20;;;26.17;23.41;102665.94;6213350;23;20023;-18
2022/04/29 10:33:22;;;;;;;3.85;0.80;;;22.10;36.20;;;26.09;23.26;102663.66;6215238;23;20084;-18
2022/04/29 10:35:53;;;;;;;2.25;0.90;;;22.10;36.10;;;26.12;23.19;102662.63;6214685;23;20025;-17
2022/04/29 10:38:34;;;;;;;4.78;0.90;;;22.00;36.10;;;26.07;23.47;102660.19;6213106;23;20070;-17
2022/04/29 10:41:19;;;;;;;3.65;0.90;;;22.00;36.20;;;26.12;23.20;102673.38;6212945;23;20023;-17
2022/04/29 10:43:50;;;;;;;2.67;0.75;;;22.00;36.10;;;26.10;23.22;102673.44;6212838;23;20027;-17
2022/04/29 10:46:26;;;;;;;1.80;0.80;;;22.10;36.10;;;25.97;23.07;102642.91;6215093;23;20020;-17
2022/04/29 10:49:30;;;;;;;6.35;1.15;;;22.00;36.10;;;26.03;23.39;102654.16;6212194;23;20091;-17
2022/04/29 10:52:28;;;;;;;2.90;1.13;;;22.00;36.00;;;26.01;23.34;102653.38;6194550;23;20016;-17
2022/04/29 10:55:07;;;;;;;2.53;0.90;;;22.00;36.00;;;26.00;23.30;102659.69;6213321;23;20040;-17
2022/04/29 10:58:02;;;;;;;3.60;0.98;;;22.00;36.10;;;26.01;23.26;102655.16;6211256;23;20025;-17
2022/04/29 11:00:29;;;;;;;3.65;1.13;;;22.00;36.10;;;25.96;23.29;102652.78;6213099;23;20049;-17